Time;durP1;ratioP1;P1;durP2;ratioP2;P2;SDS_P1;SDS_P2;PMS_P1;PMS_P2;Temp;Humidity;BMP_temperature;BMP_pressure;BME280_temperature;BME280_humidity;BME280_pressure;Samples;Min_cycle;Max_cycle;Signal;HPM_P1;HPM_P2
2021/10/20 00:02:14;;;;;;;12.68;5.28;;;;;;;20.85;62.50;100903.13;4993703;28;20137;-58
2021/10/20 00:04:41;;;;;;;15.77;4.70;;;;;;;20.87;62.45;100912.16;4990129;28;20073;-59
2021/10/20 00:07:08;;;;;;;20.88;5.90;;;;;;;20.92;62.26;100909.13;4991720;28;20073;-59
2021/10/20 00:09:35;;;;;;;13.63;5.32;;;;;;;20.94;62.19;100912.44;4991637;28;20105;-59
2021/10/20 00:12:03;;;;;;;9.05;5.43;;;;;;;20.95;62.24;100897.06;4987981;28;20059;-60
2021/10/20 00:14:30;;;;;;;8.10;4.50;;;;;;;20.94;62.06;100897.41;4989965;28;20680;-60
2021/10/20 00:16:57;;;;;;;8.95;5.07;;;;;;;21.00;62.13;100904.56;4987234;28;20129;-62
2021/10/20 00:19:24;;;;;;;11.85;4.75;;;;;;;20.96;62.43;100898.75;4983704;28;20134;-62
2021/10/20 00:21:51;;;;;;;9.82;4.35;;;;;;;20.86;62.54;100881.28;4975146;28;20129;-61
2021/10/20 00:24:17;;;;;;;11.77;4.82;;;;;;;20.84;62.85;100881.59;4990236;28;20125;-61
2021/10/20 00:26:44;;;;;;;11.55;4.90;;;;;;;20.71;62.92;100868.47;4989803;28;20494;-68
2021/10/20 00:29:11;;;;;;;7.90;4.80;;;;;;;20.64;63.38;100868.19;4989800;28;20073;-60
2021/10/20 00:31:38;;;;;;;9.13;5.72;;;;;;;20.56;63.79;100873.56;4985989;28;20096;-64
2021/10/20 00:34:05;;;;;;;10.13;4.45;;;;;;;20.53;63.56;100867.72;4992303;28;20152;-66
2021/10/20 00:36:32;;;;;;;11.55;5.63;;;;;;;20.45;64.05;100855.22;4986906;28;20128;-68
2021/10/20 00:38:59;;;;;;;13.40;5.70;;;;;;;20.54;64.20;100870.22;4989244;28;20333;-62
2021/10/20 00:41:30;;;;;;;9.77;4.97;;;;;;;20.53;64.00;100857.22;4990240;28;20081;-62
2021/10/20 00:43:56;;;;;;;10.93;5.68;;;;;;;20.61;63.71;100863.19;4988452;28;20154;-62
2021/10/20 00:46:30;;;;;;;10.10;5.07;;;;;;;20.61;64.26;100854.66;4982496;28;20137;-60
2021/10/20 00:48:58;;;;;;;15.35;5.45;;;;;;;20.62;63.76;100842.16;4988284;28;20046;-60
2021/10/20 00:51:25;;;;;;;12.73;5.18;;;;;;;20.45;63.73;100832.53;4982187;28;20088;-60
2021/10/20 00:53:59;;;;;;;15.27;5.57;;;;;;;20.63;63.84;100847.50;4988311;28;20051;-63
2021/10/20 00:56:27;;;;;;;14.55;5.80;;;;;;;20.51;64.14;100825.53;4987462;28;20078;-63
2021/10/20 00:58:55;;;;;;;11.50;6.25;;;;;;;20.55;64.24;100835.03;4974237;28;20565;-59
2021/10/20 01:01:21;;;;;;;11.60;5.75;;;;;;;20.53;64.27;100831.69;4978206;28;20509;-61
2021/10/20 01:03:49;;;;;;;10.48;5.07;;;;;;;20.50;64.33;100826.69;4981650;28;20054;-63
2021/10/20 01:06:17;;;;;;;13.95;5.25;;;;;;;20.35;65.02;100801.72;4987562;28;20129;-68
2021/10/20 01:08:44;;;;;;;10.77;5.30;;;;;;;20.23;65.32;100796.75;4989655;28;20502;-69
2021/10/20 01:11:13;;;;;;;10.95;5.65;;;;;;;20.24;65.51;100803.25;4982820;28;20070;-75
2021/10/20 01:13:40;;;;;;;7.97;4.45;;;;;;;20.17;65.98;100797.25;4988102;28;20137;-66
2021/10/20 01:16:07;;;;;;;12.90;5.32;;;;;;;20.15;66.14;100810.97;4991303;28;20130;-71
2021/10/20 01:18:34;;;;;;;10.60;5.95;;;;;;;20.17;65.97;100803.78;4990217;28;20054;-71
2021/10/20 01:21:01;;;;;;;18.10;6.15;;;;;;;20.09;65.75;100804.63;4991325;28;20074;-69
2021/10/20 01:23:28;;;;;;;8.27;4.95;;;;;;;20.05;66.14;100795.97;4986824;28;20107;-61
2021/10/20 01:25:56;;;;;;;16.38;7.35;;;;;;;20.07;65.60;100779.47;4984540;28;20146;-61
2021/10/20 01:28:23;;;;;;;10.07;5.90;;;;;;;20.09;65.84;100790.47;4989291;28;20092;-58
2021/10/20 01:30:50;;;;;;;11.93;6.10;;;;;;;20.16;65.84;100806.94;4981681;28;20145;-60
2021/10/20 01:33:17;;;;;;;9.52;5.38;;;;;;;20.00;66.29;100787.69;4987194;28;20052;-63
2021/10/20 01:35:44;;;;;;;8.73;4.88;;;;;;;20.02;66.47;100795.81;4986952;28;20438;-60
2021/10/20 01:38:11;;;;;;;11.35;5.65;;;;;;;19.94;66.75;100793.88;4991047;28;20077;-58
2021/10/20 01:40:38;;;;;;;11.77;6.28;;;;;;;19.91;67.05;100786.88;4988322;28;20061;-68
2021/10/20 01:43:05;;;;;;;10.27;5.25;;;;;;;19.92;66.92;100794.19;4983621;28;20125;-64
2021/10/20 01:45:32;;;;;;;11.40;5.55;;;;;;;19.91;67.18;100786.88;4984551;28;20078;-65
2021/10/20 01:47:59;;;;;;;11.35;5.90;;;;;;;20.03;66.92;100798.34;4987260;28;20126;-58
2021/10/20 01:50:26;;;;;;;9.75;5.32;;;;;;;19.91;66.65;100774.69;4986787;28;20506;-60
2021/10/20 01:52:52;;;;;;;14.93;6.00;;;;;;;19.96;66.33;100783.84;4991227;28;20089;-60
2021/10/20 01:55:19;;;;;;;10.77;6.68;;;;;;;20.16;66.05;100804.13;4987123;28;20077;-60
2021/10/20 01:57:46;;;;;;;19.55;6.47;;;;;;;20.08;66.02;100783.97;4979314;28;20601;-60
2021/10/20 02:00:14;;;;;;;14.75;6.18;;;;;;;20.16;66.19;100796.44;4994583;28;20074;-62
2021/10/20 02:02:41;;;;;;;11.93;6.47;;;;;;;19.98;66.11;100764.50;4984846;28;20474;-59
2021/10/20 02:05:10;;;;;;;10.88;6.00;;;;;;;20.11;66.14;100777.63;4981508;28;20056;-59
2021/10/20 02:07:37;;;;;;;14.00;6.00;;;;;;;20.28;66.02;100804.25;4989077;28;20461;-59
2021/10/20 02:10:10;;;;;;;9.88;5.00;;;;;;;20.18;65.84;100776.28;4994350;28;20129;-60
2021/10/20 02:12:37;;;;;;;14.68;6.07;;;;;;;20.32;65.93;100800.38;4989555;28;20078;-59
2021/10/20 02:15:05;;;;;;;9.13;5.80;;;;;;;20.33;66.05;100810.53;4990976;28;20081;-59
2021/10/20 02:17:33;;;;;;;13.98;5.82;;;;;;;20.36;66.02;100794.84;4988902;28;20088;-59
2021/10/20 02:20:00;;;;;;;13.57;5.68;;;;;;;20.25;66.31;100783.06;4992933;28;20093;-59
2021/10/20 02:22:28;;;;;;;11.15;4.97;;;;;;;20.25;66.68;100794.41;4993244;28;20046;-59
2021/10/20 02:24:55;;;;;;;9.77;5.85;;;;;;;20.29;66.57;100811.56;4993870;28;20081;-62
2021/10/20 02:27:21;;;;;;;11.40;5.13;;;;;;;20.28;66.48;100798.56;4991671;28;23149;-62
2021/10/20 02:29:48;;;;;;;10.38;6.07;;;;;;;20.35;66.47;100810.22;4990915;28;22962;-62
2021/10/20 02:32:16;;;;;;;9.63;5.22;;;;;;;20.26;66.67;100789.56;4992590;28;20137;-63
2021/10/20 02:34:42;;;;;;;13.27;6.20;;;;;;;20.36;66.75;100804.19;4989287;28;20146;-62
2021/10/20 02:37:09;;;;;;;11.93;5.65;;;;;;;20.29;66.91;100794.56;4991950;28;20126;-62
2021/10/20 02:39:36;;;;;;;13.27;4.63;;;;;;;20.37;66.88;100805.03;4994689;28;20125;-63
2021/10/20 02:42:03;;;;;;;10.27;5.05;;;;;;;20.32;66.94;100800.38;4988071;28;20129;-62
2021/10/20 02:44:30;;;;;;;14.13;5.47;;;;;;;20.29;67.26;100805.91;4990829;28;20054;-62
2021/10/20 02:46:57;;;;;;;10.90;5.43;;;;;;;20.27;67.25;100805.41;4991701;28;20133;-62
2021/10/20 02:49:23;;;;;;;13.68;5.22;;;;;;;20.20;67.61;100793.75;4991970;28;20112;-63
2021/10/20 02:51:50;;;;;;;10.43;4.80;;;;;;;20.30;67.41;100805.56;4986139;28;20122;-63
2021/10/20 02:54:19;;;;;;;9.68;5.18;;;;;;;20.30;67.80;100807.56;4993090;28;20097;-60
2021/10/20 02:56:47;;;;;;;9.80;5.55;;;;;;;20.34;67.69;100805.69;4992090;28;20130;-62
2021/10/20 02:59:14;;;;;;;10.93;5.20;;;;;;;20.31;67.88;100803.56;4984893;28;20089;-62
2021/10/20 03:01:41;;;;;;;9.48;5.28;;;;;;;20.33;67.86;100807.72;4981901;28;20133;-62
2021/10/20 03:04:08;;;;;;;14.07;6.00;;;;;;;20.31;67.96;100803.56;4992395;28;20081;-62
2021/10/20 03:06:35;;;;;;;10.45;5.70;;;;;;;20.28;68.25;100807.09;4989311;28;20085;-62
2021/10/20 03:09:02;;;;;;;12.52;6.20;;;;;;;20.33;67.78;100804.03;4979488;28;20090;-62
2021/10/20 03:11:29;;;;;;;9.68;6.15;;;;;;;20.41;67.87;100797.53;4989802;28;20046;-62
2021/10/20 03:13:58;;;;;;;11.80;6.03;;;;;;;20.41;67.94;100808.88;4988739;28;20129;-61
2021/10/20 03:16:25;;;;;;;17.98;6.20;;;;;;;20.50;67.66;100804.00;4989375;28;20053;-60
2021/10/20 03:18:52;;;;;;;12.77;5.28;;;;;;;20.50;67.83;100786.97;4987973;28;20529;-59
2021/10/20 03:21:20;;;;;;;15.55;5.90;;;;;;;20.45;67.98;100769.28;4991238;28;20125;-59
2021/10/20 03:23:47;;;;;;;14.63;6.70;;;;;;;20.42;68.19;100779.31;4991579;28;20125;-60
2021/10/20 03:26:14;;;;;;;10.07;6.35;;;;;;;20.21;68.72;100750.91;4987881;28;20137;-60
2021/10/20 03:28:41;;;;;;;13.38;5.68;;;;;;;20.24;68.85;100772.91;4988348;28;20545;-59
2021/10/20 03:31:07;;;;;;;13.40;6.32;;;;;;;20.23;69.02;100784.56;4986487;28;20459;-59
2021/10/20 03:33:34;;;;;;;12.63;5.95;;;;;;;20.17;69.32;100781.09;4989689;28;20062;-60
2021/10/20 03:36:02;;;;;;;9.13;5.50;;;;;;;20.12;69.17;100769.94;4985783;28;20050;-60
2021/10/20 03:38:29;;;;;;;13.80;5.97;;;;;;;20.11;69.72;100769.13;4993091;28;20205;-60
2021/10/20 03:40:56;;;;;;;8.68;4.55;;;;;;;20.07;70.03;100770.97;4987324;28;20042;-61
2021/10/20 03:43:37;;;;;;;14.13;5.97;;;;;;;20.10;70.09;100756.13;4988229;28;20144;-61
2021/10/20 03:46:04;;;;;;;14.95;5.97;;;;;;;20.04;70.21;100754.63;4982133;28;20050;-61
2021/10/20 03:48:31;;;;;;;11.80;6.18;;;;;;;20.08;70.17;100763.28;4989843;28;20130;-63
2021/10/20 03:50:58;;;;;;;15.55;6.38;;;;;;;19.94;70.17;100734.34;4988994;28;20080;-64
2021/10/20 03:53:24;;;;;;;16.52;6.30;;;;;;;20.12;70.28;100753.75;4987384;28;20121;-64
2021/10/20 03:55:52;;;;;;;11.77;5.40;;;;;;;20.15;70.14;100759.94;4985586;28;20054;-65
2021/10/20 03:58:19;;;;;;;15.88;6.00;;;;;;;20.12;70.26;100756.59;4990311;28;20512;-64
2021/10/20 04:00:46;;;;;;;16.08;6.80;;;;;;;20.18;70.01;100759.25;4987348;28;20127;-61
2021/10/20 04:03:13;;;;;;;11.38;5.88;;;;;;;20.19;69.77;100735.38;4991986;28;20113;-61
2021/10/20 04:05:39;;;;;;;9.82;5.35;;;;;;;20.15;70.24;100754.25;4991917;28;20482;-60
2021/10/20 04:08:06;;;;;;;14.68;6.57;;;;;;;20.13;70.43;100749.75;4988562;28;20558;-63
2021/10/20 04:10:33;;;;;;;14.38;6.97;;;;;;;20.12;70.38;100756.59;4991906;28;20462;-62
2021/10/20 04:13:00;;;;;;;11.32;6.00;;;;;;;20.08;70.63;100740.63;4979926;28;20109;-62
2021/10/20 04:15:31;;;;;;;14.40;6.47;;;;;;;20.09;70.61;100745.09;4978563;28;20047;-59
2021/10/20 04:17:58;;;;;;;11.73;7.07;;;;;;;20.01;70.51;100732.63;4989003;28;20395;-59
2021/10/20 04:20:25;;;;;;;14.00;6.47;;;;;;;19.94;71.34;100738.00;4985357;28;20087;-59
2021/10/20 04:22:53;;;;;;;14.52;6.53;;;;;;;20.01;71.01;100729.81;4990599;28;20070;-59
2021/10/20 04:25:21;;;;;;;11.90;7.18;;;;;;;20.01;70.91;100729.81;4990484;28;20053;-59
2021/10/20 04:27:50;;;;;;;18.90;6.97;;;;;;;20.03;70.74;100735.13;4987045;28;20467;-59
2021/10/20 04:30:19;;;;;;;9.55;5.47;;;;;;;20.00;70.98;100730.97;4983410;28;20048;-59
2021/10/20 04:32:46;;;;;;;14.65;7.55;;;;;;;19.98;71.15;100730.47;4981011;28;20097;-59
2021/10/20 04:35:13;;;;;;;13.52;7.75;;;;;;;20.01;70.87;100724.13;4989071;28;20146;-58
2021/10/20 04:37:40;;;;;;;16.83;6.10;;;;;;;20.02;70.96;100734.28;4990119;28;20181;-58
2021/10/20 04:40:09;;;;;;;15.77;7.38;;;;;;;20.03;70.82;100735.97;4989056;28;20177;-58
2021/10/20 04:42:38;;;;;;;12.20;6.73;;;;;;;20.01;70.80;100743.97;4987022;28;20093;-58
2021/10/20 04:45:05;;;;;;;16.73;6.78;;;;;;;20.07;70.74;100753.13;4992851;28;20343;-58
2021/10/20 04:47:32;;;;;;;19.95;7.55;;;;;;;20.06;70.59;100749.44;4987957;28;20125;-58
2021/10/20 04:50:00;;;;;;;15.40;6.80;;;;;;;20.18;70.30;100754.41;4980740;28;20557;-59
2021/10/20 04:52:27;;;;;;;17.55;7.60;;;;;;;20.24;70.16;100757.88;4990733;28;20107;-59
2021/10/20 04:54:54;;;;;;;14.65;6.97;;;;;;;20.13;70.06;100748.91;4988764;28;20082;-59
2021/10/20 04:57:21;;;;;;;12.88;7.57;;;;;;;20.12;69.93;100756.59;4989799;28;20082;-59
2021/10/20 04:59:48;;;;;;;13.90;6.70;;;;;;;20.01;70.50;100763.81;4987727;28;20082;-58
2021/10/20 05:02:14;;;;;;;15.93;7.38;;;;;;;19.86;70.73;100747.34;4989200;28;20050;-59
2021/10/20 05:04:42;;;;;;;17.58;7.38;;;;;;;19.90;71.05;100768.19;4976626;28;20105;-59
2021/10/20 05:07:11;;;;;;;13.82;7.80;;;;;;;19.78;71.05;100742.56;4984232;28;20047;-59
2021/10/20 05:09:38;;;;;;;19.77;8.27;;;;;;;19.77;71.09;100744.56;4986963;28;20046;-60
2021/10/20 05:12:06;;;;;;;14.07;8.07;;;;;;;19.75;71.22;100746.88;4988580;28;20043;-59
2021/10/20 05:14:33;;;;;;;14.52;8.38;;;;;;;19.79;71.51;100749.88;4988721;28;20077;-60
2021/10/20 05:17:00;;;;;;;16.38;7.43;;;;;;;19.86;71.10;100744.50;4989243;28;20082;-61
2021/10/20 05:19:27;;;;;;;16.75;7.78;;;;;;;19.81;71.05;100727.72;4988488;28;20437;-61
2021/10/20 05:21:53;;;;;;;13.35;7.55;;;;;;;19.88;71.24;100748.69;4987145;28;20046;-59
2021/10/20 05:24:20;;;;;;;16.58;8.32;;;;;;;19.81;71.77;100745.53;4984480;28;20058;-59
2021/10/20 05:26:50;;;;;;;11.40;7.10;;;;;;;19.85;71.89;100738.03;4977204;28;20146;-59
2021/10/20 05:29:17;;;;;;;;;;;;;;;19.81;72.21;100737.03;4987759;28;20137;-59
2021/10/20 05:31:44;;;;;;;15.88;8.75;;;;;;;19.82;71.93;100733.03;4985754;28;20301;-59
2021/10/20 05:34:10;;;;;;;16.15;8.77;;;;;;;19.82;71.90;100735.03;4989696;28;20133;-62
2021/10/20 05:36:37;;;;;;;13.30;6.53;;;;;;;19.85;72.38;100745.69;4983794;28;20136;-57
2021/10/20 05:39:05;;;;;;;14.48;7.90;;;;;;;19.64;72.80;100712.44;4986597;28;20051;-60
2021/10/20 05:41:32;;;;;;;18.10;8.10;;;;;;;19.72;73.13;100743.91;4990882;28;20062;-62
2021/10/20 05:43:59;;;;;;;16.20;8.05;;;;;;;19.78;72.75;100734.06;4984793;28;20554;-58
2021/10/20 05:46:26;;;;;;;17.55;9.73;;;;;;;19.84;72.60;100741.22;4986148;28;20129;-61
2021/10/20 05:48:53;;;;;;;17.55;8.43;;;;;;;19.78;72.54;100746.22;4987571;28;20458;-59
2021/10/20 05:51:20;;;;;;;12.40;6.72;;;;;;;19.58;73.60;100722.25;4990429;28;20137;-60
2021/10/20 05:53:47;;;;;;;15.23;7.72;;;;;;;19.32;73.95;100702.50;4983319;28;20138;-60
2021/10/20 05:56:13;;;;;;;15.68;9.00;;;;;;;19.60;73.91;100748.25;4987700;28;20554;-60
2021/10/20 05:58:40;;;;;;;13.73;7.05;;;;;;;19.67;73.61;100738.44;4989155;28;20583;-60
2021/10/20 06:01:10;;;;;;;16.02;8.93;;;;;;;19.57;73.80;100739.59;4984435;28;20423;-61
2021/10/20 06:03:37;;;;;;;;;;;;;;;19.50;74.37;100737.25;4987124;28;20074;-60
2021/10/20 06:06:04;;;;;;;18.63;7.18;;;;;;;19.50;73.90;100745.75;4988930;28;20008;-60
2021/10/20 06:08:31;;;;;;;16.85;8.60;;;;;;;19.40;73.51;100729.13;4992722;28;20097;-60
2021/10/20 06:10:58;;;;;;;18.23;9.13;;;;;;;19.41;74.11;100742.94;4988029;28;20554;-60
2021/10/20 06:13:24;;;;;;;22.10;9.95;;;;;;;19.38;74.19;100731.44;4989535;28;20137;-60
2021/10/20 06:15:52;;;;;;;21.98;9.93;;;;;;;19.21;73.81;100706.81;4992067;28;20050;-60
2021/10/20 06:18:19;;;;;;;18.35;9.23;;;;;;;19.40;74.92;100743.28;4987951;28;20055;-59
2021/10/20 06:20:50;;;;;;;22.90;9.65;;;;;;;19.36;74.84;100751.63;4986228;28;20203;-60
2021/10/20 06:23:18;;;;;;;12.40;7.70;;;;;;;19.25;75.37;100752.28;4993489;28;20054;-60
2021/10/20 06:25:45;;;;;;;13.73;8.43;;;;;;;19.10;75.19;100734.66;4989738;28;20046;-60
2021/10/20 06:28:11;;;;;;;14.88;8.05;;;;;;;19.16;75.03;100753.13;4989953;28;20506;-61
2021/10/20 06:30:38;;;;;;;20.60;10.32;;;;;;;19.08;75.29;100739.00;4984562;28;20467;-59
2021/10/20 06:33:05;;;;;;;17.85;9.60;;;;;;;19.26;75.55;100765.28;4988515;28;20138;-60
2021/10/20 06:35:32;;;;;;;23.13;11.07;;;;;;;19.32;75.59;100766.78;4989636;28;20089;-60
2021/10/20 06:37:59;;;;;;;23.98;11.18;;;;;;;19.21;75.43;100743.63;4983278;28;20443;-61
2021/10/20 06:40:26;;;;;;;20.30;10.85;;;;;;;19.37;75.64;100769.44;4984219;28;20065;-61
2021/10/20 06:42:53;;;;;;;27.30;10.98;;;;;;;19.30;75.59;100746.47;4988553;28;20047;-57
2021/10/20 06:45:20;;;;;;;23.25;10.98;;;;;;;19.30;75.53;100757.78;4979265;28;20763;-60
2021/10/20 06:47:47;;;;;;;21.95;11.48;;;;;;;19.36;75.84;100767.78;4984415;28;20138;-62
2021/10/20 06:50:14;;;;;;;26.45;12.50;;;;;;;19.10;76.46;100737.47;4988213;28;20463;-62
2021/10/20 06:52:41;;;;;;;22.83;11.65;;;;;;;19.17;76.78;100759.63;4988666;28;20074;-61
2021/10/20 06:55:09;;;;;;;26.45;11.93;;;;;;;19.11;76.81;100749.63;4990233;28;20066;-62
2021/10/20 06:57:36;;;;;;;27.00;11.13;;;;;;;19.12;76.67;100752.13;4980462;28;20065;-62
2021/10/20 07:00:05;;;;;;;27.98;11.75;;;;;;;19.23;77.03;100769.63;4988474;28;20097;-62
2021/10/20 07:02:31;;;;;;;25.95;12.15;;;;;;;19.25;76.91;100772.09;4991927;28;20133;-62
2021/10/20 07:04:59;;;;;;;23.67;11.90;;;;;;;19.19;76.94;100771.44;4992178;28;20490;-62
2021/10/20 07:07:28;;;;;;;23.15;11.63;;;;;;;19.02;77.31;100748.81;4993987;28;20043;-62
2021/10/20 07:09:55;;;;;;;22.25;12.13;;;;;;;19.25;77.09;100770.13;4982972;28;20089;-62
2021/10/20 07:12:22;;;;;;;28.73;12.55;;;;;;;19.32;77.23;100783.78;4983983;28;20073;-62
2021/10/20 07:14:49;;;;;;;23.48;10.27;;;;;;;19.29;77.07;100779.59;4993552;28;20133;-62
2021/10/20 07:17:16;;;;;;;18.98;11.10;;;;;;;19.24;77.47;100793.09;4992671;28;20463;-62
2021/10/20 07:19:43;;;;;;;22.13;10.65;;;;;;;19.12;78.03;100788.94;4991236;28;20061;-62
2021/10/20 07:22:10;;;;;;;27.25;10.93;;;;;;;19.08;78.17;100785.13;4987053;28;20085;-63
2021/10/20 07:24:37;;;;;;;22.50;10.85;;;;;;;18.99;78.25;100792.75;4985194;28;20141;-63
2021/10/20 07:27:04;;;;;;;20.55;9.82;;;;;;;18.98;78.21;100790.28;4991842;28;20133;-63
2021/10/20 07:29:31;;;;;;;15.35;8.15;;;;;;;18.88;78.17;100765.94;4992809;28;20158;-63
2021/10/20 07:31:58;;;;;;;24.27;11.20;;;;;;;18.94;78.71;100790.94;4990115;28;20058;-63
2021/10/20 07:34:25;;;;;;;20.05;10.43;;;;;;;18.94;78.61;100788.09;4990875;28;20149;-63
2021/10/20 07:36:52;;;;;;;21.60;12.07;;;;;;;19.00;78.63;100796.41;4988091;28;20491;-62
2021/10/20 07:39:19;;;;;;;23.35;11.57;;;;;;;18.96;78.62;100784.94;4989494;28;20133;-61
2021/10/20 07:41:46;;;;;;;23.80;11.98;;;;;;;18.98;79.04;100799.59;4990192;28;20061;-62
2021/10/20 07:44:13;;;;;;;23.45;12.10;;;;;;;18.97;79.33;100802.72;4981083;28;20085;-62
2021/10/20 07:46:40;;;;;;;19.98;9.43;;;;;;;19.01;79.08;100804.59;4990841;28;20121;-62
2021/10/20 07:49:08;;;;;;;21.98;11.32;;;;;;;18.69;79.41;100767.03;4990899;28;20058;-61
2021/10/20 07:51:34;;;;;;;18.90;8.98;;;;;;;18.92;79.38;100813.06;4982113;28;20121;-61
2021/10/20 07:54:01;;;;;;;19.50;9.98;;;;;;;18.82;79.32;100793.56;4988056;28;20082;-61
2021/10/20 07:56:32;;;;;;;15.88;7.10;;;;;;;18.93;79.83;100805.38;4992121;28;20125;-61
2021/10/20 07:59:00;;;;;;;23.00;12.15;;;;;;;18.89;80.02;100808.06;4990981;28;20046;-61
2021/10/20 08:01:27;;;;;;;28.38;11.95;;;;;;;18.97;79.58;100814.88;4989025;28;20126;-62
2021/10/20 08:03:56;;;;;;;22.17;9.13;;;;;;;19.07;79.20;100825.88;4981970;28;20048;-62
2021/10/20 08:06:23;;;;;;;23.65;11.68;;;;;;;19.05;79.49;100828.22;4978532;28;20141;-62
2021/10/20 08:08:50;;;;;;;19.30;9.85;;;;;;;19.08;79.35;100827.56;4988704;28;20050;-62
2021/10/20 08:11:17;;;;;;;25.08;10.48;;;;;;;19.17;79.38;100833.22;4971539;28;20515;-62
2021/10/20 08:13:44;;;;;;;30.80;13.10;;;;;;;19.25;78.96;100834.38;4982144;28;20047;-62
2021/10/20 08:16:11;;;;;;;22.30;8.40;;;;;;;19.13;79.40;100809.59;4988908;28;20093;-62
2021/10/20 08:18:37;;;;;;;24.15;11.32;;;;;;;19.26;79.52;100830.41;4987463;28;20414;-62
2021/10/20 08:21:04;;;;;;;21.83;10.98;;;;;;;19.24;79.94;100832.72;4978118;28;20086;-63
2021/10/20 08:23:31;;;;;;;21.13;10.00;;;;;;;19.21;79.89;100828.56;4981830;28;20130;-64
2021/10/20 08:25:58;;;;;;;29.95;14.27;;;;;;;19.26;79.87;100830.41;4988517;28;20054;-63
2021/10/20 08:28:25;;;;;;;27.38;11.63;;;;;;;19.26;79.65;100833.25;4991244;28;20104;-64
2021/10/20 08:30:53;;;;;;;29.42;11.18;;;;;;;19.30;79.26;100831.41;4988865;28;20059;-63
2021/10/20 08:33:19;;;;;;;19.23;9.07;;;;;;;19.31;79.76;100838.72;4990877;28;20121;-63
2021/10/20 08:35:46;;;;;;;25.65;11.25;;;;;;;19.35;79.46;100845.38;4990764;28;20395;-62
2021/10/20 08:38:13;;;;;;;24.92;11.68;;;;;;;19.39;79.70;100840.75;4992157;28;20054;-63
2021/10/20 08:40:45;;;;;;;23.55;12.02;;;;;;;19.42;79.43;100840.09;4991528;28;20054;-62
2021/10/20 08:43:20;;;;;;;28.63;11.98;;;;;;;19.31;79.53;100822.56;4986916;28;20046;-62
2021/10/20 08:45:47;;;;;;;28.67;14.00;;;;;;;19.49;79.32;100850.91;4990333;28;20081;-62
2021/10/20 08:48:18;;;;;;;24.17;12.10;;;;;;;19.23;79.92;100826.25;4990367;28;20405;-62
2021/10/20 08:50:54;;;;;;;26.23;13.02;;;;;;;19.34;80.01;100849.38;4988153;28;20058;-62
2021/10/20 08:53:22;;;;;;;37.50;14.77;;;;;;;19.49;79.42;100863.06;4988007;28;20506;-63
2021/10/20 08:55:50;;;;;;;23.58;13.48;;;;;;;19.26;80.00;100836.91;4991233;28;20473;-64
2021/10/20 08:58:17;;;;;;;19.98;11.63;;;;;;;19.39;79.73;100864.22;4986765;28;20050;-63
2021/10/20 09:00:45;;;;;;;28.65;13.68;;;;;;;19.09;79.90;100837.72;4988930;28;20132;-64
2021/10/20 09:03:12;;;;;;;24.13;13.80;;;;;;;19.15;80.26;100850.56;4989506;28;20109;-63
2021/10/20 09:05:39;;;;;;;26.90;13.38;;;;;;;19.20;80.51;100857.22;4988017;28;20133;-66
2021/10/20 09:08:07;;;;;;;23.55;11.05;;;;;;;19.05;81.03;100850.03;4987314;28;20066;-63
2021/10/20 09:10:34;;;;;;;21.30;9.82;;;;;;;19.01;80.96;100846.19;4991622;28;20086;-63
2021/10/20 09:13:02;;;;;;;27.40;12.85;;;;;;;19.00;81.26;100855.84;4993721;28;20105;-63
2021/10/20 09:15:32;;;;;;;24.25;11.63;;;;;;;19.13;80.87;100867.03;4982902;28;20050;-64
2021/10/20 09:18:00;;;;;;;24.58;11.23;;;;;;;19.14;80.87;100868.72;4990904;28;20074;-64
2021/10/20 09:20:39;;;;;;;26.38;14.10;;;;;;;19.15;80.82;100872.38;4992045;28;20133;-64
2021/10/20 09:23:08;;;;;;;18.67;10.97;;;;;;;19.15;81.28;100876.03;4984205;28;20070;-66
2021/10/20 09:25:38;;;;;;;16.63;8.15;;;;;;;19.22;80.62;100869.06;4987664;28;20085;-63
2021/10/20 09:28:06;;;;;;;;;;;;;;;19.07;81.55;100874.00;4992423;28;20082;-62
2021/10/20 09:30:33;;;;;;;19.58;11.65;;;;;;;19.17;81.16;100870.84;4986943;28;20008;-62
2021/10/20 09:33:02;;;;;;;12.85;7.95;;;;;;;19.18;80.96;100875.38;4987533;28;20101;-62
2021/10/20 09:35:33;;;;;;;18.83;10.52;;;;;;;19.29;80.91;100880.72;4991464;28;20133;-63
2021/10/20 09:38:01;;;;;;;24.00;12.60;;;;;;;19.16;80.87;100865.53;4974560;28;20050;-63
2021/10/20 09:40:41;;;;;;;20.42;9.93;;;;;;;19.35;80.19;100865.22;4980012;28;20054;-62
2021/10/20 09:43:11;;;;;;;17.00;9.07;;;;;;;19.42;80.43;100886.22;4992146;28;20081;-61
2021/10/20 09:45:40;;;;;;;21.42;11.32;;;;;;;19.40;80.62;100890.53;4989270;28;20077;-62
2021/10/20 09:48:14;;;;;;;24.50;12.43;;;;;;;19.52;80.18;100885.06;4989207;28;20050;-63
2021/10/20 09:50:58;;;;;;;24.50;12.52;;;;;;;19.70;80.03;100893.59;4979929;28;20146;-62
2021/10/20 09:53:33;;;;;;;23.95;11.65;;;;;;;19.70;79.70;100887.94;4982418;28;20082;-62
2021/10/20 09:56:03;;;;;;;24.48;11.88;;;;;;;19.74;79.93;100901.09;4989643;28;20143;-61
2021/10/20 09:58:33;;;;;;;23.65;11.25;;;;;;;19.79;79.59;100894.41;4992371;28;20078;-62
2021/10/20 10:01:01;;;;;;;19.45;10.70;;;;;;;19.84;79.71;100899.91;4987812;28;20042;-62
2021/10/20 10:03:29;;;;;;;23.27;11.10;;;;;;;19.81;79.46;100887.25;4984391;28;20043;-62
2021/10/20 10:05:56;;;;;;;19.52;11.90;;;;;;;19.98;79.31;100906.22;4990227;28;20046;-61
2021/10/20 10:08:23;;;;;;;21.27;11.18;;;;;;;19.94;79.02;100884.56;4991655;28;20086;-63
2021/10/20 10:10:51;;;;;;;19.58;10.38;;;;;;;20.09;79.25;100899.03;4989729;28;20157;-62
2021/10/20 10:13:21;;;;;;;18.50;9.93;;;;;;;20.12;79.01;100903.19;4985457;28;20046;-64
2021/10/20 10:15:49;;;;;;;18.67;10.35;;;;;;;20.07;79.05;100912.72;4984414;28;20487;-63
2021/10/20 10:18:18;;;;;;;17.58;9.75;;;;;;;20.04;79.32;100904.06;4988973;28;20133;-63
2021/10/20 10:20:45;;;;;;;18.67;10.02;;;;;;;20.02;79.11;100900.72;4986988;28;20425;-63
2021/10/20 10:23:21;;;;;;;16.42;9.40;;;;;;;20.09;79.09;100909.53;4981676;28;20409;-63
2021/10/20 10:26:06;;;;;;;24.52;11.40;;;;;;;20.08;79.03;100908.72;4994250;28;20046;-63
2021/10/20 10:28:35;;;;;;;24.67;12.43;;;;;;;20.23;79.06;100912.19;4989628;28;20458;-63
2021/10/20 10:31:08;;;;;;;24.27;10.45;;;;;;;20.25;78.99;100913.50;4990926;28;20146;-61
2021/10/20 10:33:41;;;;;;;26.10;11.25;;;;;;;20.22;78.82;100907.69;4988199;28;20470;-63
2021/10/20 10:36:19;;;;;;;21.67;9.15;;;;;;;20.21;78.87;100918.19;4988206;28;20066;-62
2021/10/20 10:38:52;;;;;;;16.27;7.95;;;;;;;20.21;78.66;100911.69;4988673;28;20050;-62
2021/10/20 10:41:26;;;;;;;17.67;8.20;;;;;;;20.24;78.95;100917.53;4990766;28;20065;-62
2021/10/20 10:46:40;;;;;;;15.23;7.30;;;;;;;20.19;78.73;100929.03;4990670;28;20076;-62
2021/10/20 10:49:35;;;;;;;17.35;8.02;;;;;;;20.21;78.92;100934.38;4986219;28;20050;-62
2021/10/20 10:52:17;;;;;;;18.35;7.90;;;;;;;20.23;78.69;100926.34;4985363;28;20138;-63
2021/10/20 10:55:07;;;;;;;17.08;8.82;;;;;;;20.16;78.72;100932.53;4992939;28;20161;-62
2021/10/20 10:57:41;;;;;;;;;;;;;;;20.15;78.80;100935.72;4985358;28;20086;-62
2021/10/20 11:00:17;;;;;;;19.85;9.80;;;;;;;20.09;78.69;100946.41;4993345;28;20216;-62
2021/10/20 11:02:51;;;;;;;22.27;8.32;;;;;;;19.91;78.91;100903.06;4987701;28;20133;-63
2021/10/20 11:05:24;;;;;;;23.20;9.30;;;;;;;20.17;78.90;100939.03;4991962;28;20049;-63
2021/10/20 11:07:58;;;;;;;21.95;10.05;;;;;;;20.09;78.77;100909.53;4981954;28;20043;-63
2021/10/20 11:10:24;;;;;;;20.70;8.85;;;;;;;20.23;78.80;100937.69;4992093;28;20058;-63
2021/10/20 11:12:55;;;;;;;17.35;9.15;;;;;;;20.23;78.64;100921.50;4990069;28;20082;-63
2021/10/20 11:15:23;;;;;;;23.05;9.65;;;;;;;20.31;78.69;100928.38;4989850;28;20142;-62
2021/10/20 11:17:51;;;;;;;22.13;9.90;;;;;;;20.38;78.27;100945.69;4985775;28;20607;-63
2021/10/20 11:20:20;;;;;;;22.73;10.05;;;;;;;20.39;78.48;100936.00;4992367;28;20476;-62
2021/10/20 11:22:50;;;;;;;22.27;10.40;;;;;;;20.46;78.30;100930.63;4980475;28;20558;-63
2021/10/20 11:25:18;;;;;;;23.42;10.02;;;;;;;20.52;78.07;100942.69;4985648;28;20077;-63